Time;durP1;ratioP1;P1;durP2;ratioP2;P2;SDS_P1;SDS_P2;PMS_P1;PMS_P2;Temp;Humidity;BMP_temperature;BMP_pressure;BME280_temperature;BME280_humidity;BME280_pressure;Samples;Min_cycle;Max_cycle;Signal;HPM_P1;HPM_P2
2021/07/25 00:01:13;;;;;;;16.10;10.38;;;;;;;21.20;68.78;100633.03;10200497;28;20566;-68
2021/07/25 00:06:17;;;;;;;14.20;11.77;;;;;;;21.16;68.93;100626.66;10213399;28;20401;-68
2021/07/25 00:11:15;;;;;;;14.45;10.88;;;;;;;21.11;69.93;100635.38;10206392;28;20072;-68
2021/07/25 00:16:11;;;;;;;13.48;10.45;;;;;;;21.08;68.96;100633.38;10193872;28;20046;-70
2021/07/25 00:21:08;;;;;;;14.52;11.90;;;;;;;21.01;70.03;100620.25;10195751;28;20056;-69
2021/07/25 00:26:06;;;;;;;15.65;11.80;;;;;;;21.03;69.18;100614.31;10192091;28;20069;-70
2021/07/25 00:31:04;;;;;;;17.88;12.55;;;;;;;21.06;69.96;100613.53;10202474;28;20084;-70
2021/07/25 00:36:02;;;;;;;15.05;11.05;;;;;;;21.03;68.09;100617.09;10202277;28;20045;-68
2021/07/25 00:41:21;;;;;;;14.18;11.70;;;;;;;21.10;69.72;100635.78;10204673;28;20514;-69
2021/07/25 00:46:19;;;;;;;14.20;11.23;;;;;;;21.06;68.79;100610.75;10184862;28;20053;-69
2021/07/25 00:51:19;;;;;;;17.50;11.50;;;;;;;21.06;69.77;100632.19;10187689;28;20432;-69
2021/07/25 00:56:17;;;;;;;14.93;10.80;;;;;;;20.99;69.46;100621.84;10191426;28;20053;-69
2021/07/25 01:01:14;;;;;;;25.30;11.18;;;;;;;21.06;69.67;100637.75;10190408;28;20060;-69
2021/07/25 01:06:26;;;;;;;13.98;9.95;;;;;;;21.03;69.23;100625.44;10205037;28;20152;-67
2021/07/25 01:11:30;;;;;;;13.93;10.57;;;;;;;20.99;69.93;100630.97;10197144;28;20111;-67
2021/07/25 01:16:28;;;;;;;13.60;11.38;;;;;;;20.89;70.20;100628.16;10198572;28;20085;-68
2021/07/25 01:21:25;;;;;;;14.20;10.32;;;;;;;20.90;69.85;100618.63;10190406;28;20049;-68
2021/07/25 01:26:29;;;;;;;14.18;10.80;;;;;;;20.85;69.91;100605.13;10198133;28;20045;-68
2021/07/25 01:31:30;;;;;;;14.07;10.48;;;;;;;20.81;69.70;100605.88;10205458;28;20069;-69
2021/07/25 01:36:27;;;;;;;20.75;11.82;;;;;;;20.77;69.47;100607.88;10187645;28;20059;-68
2021/07/25 01:41:24;;;;;;;14.20;10.93;;;;;;;20.72;70.30;100608.22;10192562;28;20351;-69
2021/07/25 01:46:21;;;;;;;16.77;11.18;;;;;;;20.70;70.34;100605.06;10197972;28;20079;-70
2021/07/25 01:51:17;;;;;;;15.57;11.05;;;;;;;20.61;71.07;100612.94;10195842;28;20060;-70
2021/07/25 01:56:14;;;;;;;17.85;11.32;;;;;;;20.58;71.05;100619.25;10193471;28;20570;-70
2021/07/25 02:01:10;;;;;;;15.88;10.80;;;;;;;20.51;71.08;100622.75;10175292;28;20511;-70
2021/07/25 02:06:07;;;;;;;17.90;11.02;;;;;;;20.45;71.36;100615.22;10190646;28;20428;-70
2021/07/25 02:11:04;;;;;;;15.05;11.15;;;;;;;20.36;71.71;100633.00;10185208;28;20054;-69
2021/07/25 02:16:00;;;;;;;15.77;11.40;;;;;;;20.36;71.88;100635.78;10193108;28;20100;-67
2021/07/25 02:20:57;;;;;;;15.55;11.73;;;;;;;20.28;72.42;100631.34;10199016;28;20045;-68
2021/07/25 02:25:53;;;;;;;14.13;11.10;;;;;;;20.29;72.26;100635.72;10193847;28;20186;-67
2021/07/25 02:30:50;;;;;;;15.48;11.07;;;;;;;20.25;72.74;100629.34;10206259;28;20129;-68
2021/07/25 02:35:46;;;;;;;18.88;11.77;;;;;;;20.21;73.30;100650.72;10206833;28;20072;-70
2021/07/25 02:40:43;;;;;;;14.32;10.85;;;;;;;20.29;73.00;100643.25;10194668;28;20402;-68
2021/07/25 02:45:39;;;;;;;15.75;10.73;;;;;;;20.27;73.67;100643.63;10198602;28;20049;-71
2021/07/25 02:50:36;;;;;;;13.82;10.45;;;;;;;20.31;73.12;100644.47;10205146;28;20069;-72
2021/07/25 02:55:32;;;;;;;19.35;11.98;;;;;;;20.30;73.87;100644.84;10201404;28;20068;-71
2021/07/25 03:00:29;;;;;;;16.73;11.70;;;;;;;20.29;73.51;100657.94;10184482;28;20046;-73
2021/07/25 03:05:26;;;;;;;16.58;11.68;;;;;;;20.33;73.23;100672.66;10185712;28;20073;-71
2021/07/25 03:10:22;;;;;;;19.08;11.98;;;;;;;20.34;73.18;100685.34;10212363;28;20053;-71
2021/07/25 03:15:19;;;;;;;14.93;11.60;;;;;;;20.35;73.42;100684.16;10205751;28;20045;-68
2021/07/25 03:20:15;;;;;;;18.90;12.52;;;;;;;20.34;73.64;100690.88;10202106;28;20070;-69
2021/07/25 03:25:12;;;;;;;14.82;12.43;;;;;;;20.37;73.75;100686.53;10205653;28;20099;-68
2021/07/25 03:30:09;;;;;;;17.27;11.70;;;;;;;20.32;74.07;100684.13;10205890;28;20081;-69
2021/07/25 03:35:05;;;;;;;15.98;12.13;;;;;;;20.34;73.62;100699.22;10209337;28;20177;-71
2021/07/25 03:40:02;;;;;;;18.70;12.60;;;;;;;20.35;72.94;100695.28;10200681;28;20569;-68
2021/07/25 03:44:59;;;;;;;19.42;13.32;;;;;;;20.35;73.07;100695.28;10208191;28;20095;-68
2021/07/25 03:49:55;;;;;;;18.95;13.38;;;;;;;20.33;73.38;100703.19;10200796;28;20565;-69
2021/07/25 03:54:52;;;;;;;18.65;14.32;;;;;;;20.30;73.34;100698.38;10207208;28;20042;-70
2021/07/25 03:59:48;;;;;;;20.20;15.07;;;;;;;20.28;74.17;100699.97;10201494;28;20128;-70
2021/07/25 04:04:44;;;;;;;22.60;16.63;;;;;;;20.23;74.83;100708.66;10202227;28;20152;-71
2021/07/25 04:09:41;;;;;;;24.20;16.90;;;;;;;20.22;74.77;100718.97;10196477;28;20074;-70
2021/07/25 04:14:38;;;;;;;21.88;15.98;;;;;;;20.20;75.11;100710.22;10181748;28;20646;-70
2021/07/25 04:19:34;;;;;;;22.25;17.58;;;;;;;20.15;75.60;100714.13;10183881;28;20108;-71
2021/07/25 04:24:30;;;;;;;22.40;17.83;;;;;;;20.15;75.64;100727.22;10183061;28;20419;-70
2021/07/25 04:29:27;;;;;;;24.48;19.35;;;;;;;20.09;76.24;100726.75;10185882;28;20073;-70
2021/07/25 04:34:25;;;;;;;25.33;21.35;;;;;;;20.08;76.84;100729.94;10185705;28;20088;-68
2021/07/25 04:39:21;;;;;;;27.65;22.02;;;;;;;20.07;76.94;100733.88;10181588;28;20049;-70
2021/07/25 04:44:28;;;;;;;28.27;22.70;;;;;;;20.05;77.21;100739.84;10204674;28;20148;-70
2021/07/25 04:49:32;;;;;;;31.35;23.38;;;;;;;20.07;77.14;100739.44;10191216;28;20550;-69
2021/07/25 04:54:34;;;;;;;29.77;23.90;;;;;;;20.13;76.62;100746.25;10180959;28;20476;-70
2021/07/25 04:59:41;;;;;;;30.52;25.55;;;;;;;20.10;76.92;100749.78;10188356;28;20038;-69
2021/07/25 05:04:37;;;;;;;30.70;24.52;;;;;;;20.19;76.57;100758.59;10189138;28;20135;-69
2021/07/25 05:09:34;;;;;;;29.15;22.85;;;;;;;20.30;76.65;100753.91;10197340;28;20080;-68
2021/07/25 05:14:36;;;;;;;30.83;23.45;;;;;;;20.37;76.41;100762.31;10205535;28;20110;-68
2021/07/25 05:19:45;;;;;;;28.65;23.80;;;;;;;20.36;76.34;100763.50;10199212;28;20045;-69
2021/07/25 05:24:43;;;;;;;28.80;23.27;;;;;;;20.33;76.46;100767.06;10195631;28;20129;-70
2021/07/25 05:29:40;;;;;;;36.00;27.42;;;;;;;20.31;75.85;100766.63;10194947;28;20061;-70
2021/07/25 05:34:36;;;;;;;33.30;26.58;;;;;;;20.28;76.04;100777.69;10203047;28;20091;-69
2021/07/25 05:39:33;;;;;;;32.30;25.67;;;;;;;20.26;76.17;100775.31;10196072;28;20046;-69
2021/07/25 05:44:31;;;;;;;33.30;27.58;;;;;;;20.25;76.15;100772.91;10189551;28;20096;-68
2021/07/25 05:49:28;;;;;;;33.70;26.25;;;;;;;20.29;76.12;100787.63;10197609;28;20080;-69
2021/07/25 05:54:24;;;;;;;38.55;26.50;;;;;;;20.30;75.94;100792.00;10202774;28;20519;-68
2021/07/25 05:59:21;;;;;;;35.20;27.00;;;;;;;20.27;76.02;100799.09;10198760;28;20157;-69
2021/07/25 06:04:17;;;;;;;35.28;27.95;;;;;;;20.25;75.77;100797.91;10207495;28;20069;-70
2021/07/25 06:09:13;;;;;;;33.63;26.50;;;;;;;20.27;75.66;100788.00;10197446;28;20053;-68
2021/07/25 06:14:10;;;;;;;33.78;25.83;;;;;;;20.26;75.50;100791.97;10209672;28;20419;-69
2021/07/25 06:19:07;;;;;;;30.73;24.30;;;;;;;20.26;75.17;100803.09;10190631;28;20140;-71
2021/07/25 06:24:03;;;;;;;32.22;23.63;;;;;;;20.26;74.39;100807.81;10196407;28;20427;-68
2021/07/25 06:29:02;;;;;;;29.48;23.40;;;;;;;20.29;74.68;100818.97;10197220;28;20042;-68
2021/07/25 06:33:59;;;;;;;28.15;24.63;;;;;;;20.34;74.15;100815.03;10203387;28;20053;-69
2021/07/25 06:38:56;;;;;;;29.67;22.63;;;;;;;20.42;74.00;100811.13;10177074;28;20033;-70
2021/07/25 06:43:53;;;;;;;30.02;23.20;;;;;;;20.48;73.39;100811.59;10203003;28;20049;-68
2021/07/25 06:48:50;;;;;;;25.77;19.55;;;;;;;20.52;72.58;100826.31;10195081;28;20034;-70
2021/07/25 06:53:47;;;;;;;26.23;21.58;;;;;;;20.62;73.08;100820.09;10185768;28;20124;-68
2021/07/25 06:58:44;;;;;;;25.08;21.35;;;;;;;20.70;72.85;100827.31;10198523;28;20034;-69
2021/07/25 07:03:41;;;;;;;22.92;19.88;;;;;;;20.77;72.63;100821.81;10193755;28;20496;-68
2021/07/25 07:08:37;;;;;;;23.83;18.25;;;;;;;20.83;72.09;100824.22;10193977;28;20092;-69
2021/07/25 07:13:34;;;;;;;26.05;19.98;;;;;;;20.85;71.92;100821.84;10202232;28;20124;-67
2021/07/25 07:18:30;;;;;;;26.83;19.42;;;;;;;20.98;71.84;100837.03;10187419;28;20456;-71
2021/07/25 07:23:27;;;;;;;28.02;22.80;;;;;;;21.09;71.35;100826.78;10199436;28;20129;-72
2021/07/25 07:28:23;;;;;;;26.60;21.52;;;;;;;21.17;70.75;100828.44;10195573;28;20546;-70
2021/07/25 07:33:22;;;;;;;25.83;19.55;;;;;;;21.28;70.38;100825.72;10208908;28;20077;-70
2021/07/25 07:38:21;;;;;;;23.75;19.45;;;;;;;21.37;69.89;100823.38;10189272;28;20456;-71
2021/07/25 07:43:18;;;;;;;26.40;21.15;;;;;;;21.47;69.91;100824.66;10182754;28;20692;-70
2021/07/25 07:48:18;;;;;;;25.23;19.73;;;;;;;21.61;69.65;100833.06;10179849;28;20053;-71
2021/07/25 07:53:14;;;;;;;23.95;18.85;;;;;;;21.71;68.96;100827.94;10209555;28;20096;-71
2021/07/25 07:58:11;;;;;;;21.23;16.42;;;;;;;21.75;68.94;100823.97;10199690;28;20046;-73
2021/07/25 08:03:07;;;;;;;17.00;14.82;;;;;;;21.72;66.66;100837.88;10183562;28;20053;-72
2021/07/25 08:08:04;;;;;;;22.83;16.58;;;;;;;21.70;68.05;100840.25;10206381;28;20041;-72
2021/07/25 08:13:00;;;;;;;21.27;16.75;;;;;;;21.68;68.18;100846.22;10190351;28;20499;-70
2021/07/25 08:17:57;;;;;;;19.60;15.85;;;;;;;21.70;67.44;100854.16;10193437;28;20617;-72
2021/07/25 08:22:53;;;;;;;20.35;15.35;;;;;;;21.93;67.90;100851.88;10192459;28;20868;-72
2021/07/25 08:27:50;;;;;;;22.48;17.25;;;;;;;22.08;66.78;100847.16;10184882;28;20103;-72
2021/07/25 08:32:47;;;;;;;20.65;15.05;;;;;;;22.27;67.12;100848.81;10191070;28;20049;-68
2021/07/25 08:37:44;;;;;;;17.17;14.82;;;;;;;22.44;66.72;100848.06;10189667;28;20156;-71
2021/07/25 08:42:57;;;;;;;19.83;16.10;;;;;;;22.57;65.79;100850.44;10196616;28;20133;-69
2021/07/25 08:48:12;;;;;;;20.60;16.05;;;;;;;22.71;65.72;100853.25;10188872;28;20037;-71
2021/07/25 08:53:18;;;;;;;18.20;14.70;;;;;;;22.87;65.56;100856.41;10172582;28;20053;-70
2021/07/25 08:58:18;;;;;;;19.30;15.02;;;;;;;23.03;64.94;100844.09;10197841;28;20107;-69
2021/07/25 09:03:15;;;;;;;16.88;13.63;;;;;;;23.17;63.14;100843.28;10181113;28;20058;-69
2021/07/25 09:08:12;;;;;;;19.10;15.23;;;;;;;23.30;62.73;100842.47;10201877;28;20121;-67
2021/07/25 09:13:08;;;;;;;17.63;12.18;;;;;;;23.42;61.43;100843.22;10187746;28;20081;-70
2021/07/25 09:18:06;;;;;;;16.00;13.60;;;;;;;23.52;61.16;100836.81;10184820;28;20046;-69
2021/07/25 09:23:07;;;;;;;14.23;10.32;;;;;;;23.68;60.35;100845.53;10187487;28;20077;-69
2021/07/25 09:28:06;;;;;;;15.15;11.48;;;;;;;23.77;58.27;100835.97;10190172;28;20171;-70
2021/07/25 09:33:20;;;;;;;12.70;9.80;;;;;;;23.98;59.79;100833.06;10192488;28;20701;-69
2021/07/25 09:38:18;;;;;;;12.30;9.25;;;;;;;24.19;58.49;100843.31;10199021;28;20038;-70
2021/07/25 09:43:19;;;;;;;14.40;8.77;;;;;;;24.39;58.17;100826.78;10186701;28;20115;-68
2021/07/25 09:48:25;;;;;;;12.02;9.88;;;;;;;24.54;57.00;100833.13;10190151;28;20053;-69
2021/07/25 09:53:22;;;;;;;12.80;10.32;;;;;;;24.80;56.13;100845.69;10186886;28;20042;-70
2021/07/25 09:58:32;;;;;;;11.50;10.30;;;;;;;24.84;54.99;100840.06;10189426;28;20049;-70
2021/07/25 10:03:34;;;;;;;11.85;9.63;;;;;;;25.17;54.42;100838.53;10191819;28;20132;-70
2021/07/25 10:08:31;;;;;;;;;;;;;;;25.51;54.08;100832.22;10190663;28;20113;-69
2021/07/25 10:13:28;;;;;;;10.93;9.07;;;;;;;25.72;52.46;100843.16;10188040;28;19926;-69
2021/07/25 10:18:27;;;;;;;11.43;9.15;;;;;;;26.79;50.61;100835.22;10191902;28;20104;-69
2021/07/25 10:23:31;;;;;;;10.50;7.70;;;;;;;27.92;49.31;100827.06;10193643;28;20046;-69
2021/07/25 10:28:31;;;;;;;13.15;8.57;;;;;;;28.68;46.44;100840.16;10190222;28;20520;-69
2021/07/25 10:33:28;;;;;;;10.95;8.25;;;;;;;29.96;47.44;100830.22;10185689;28;20052;-70
2021/07/25 10:38:25;;;;;;;9.18;7.82;;;;;;;30.44;41.95;100829.56;10186322;28;20507;-68
2021/07/25 10:43:26;;;;;;;12.70;8.02;;;;;;;31.16;40.29;100833.59;10199521;28;20155;-70
2021/07/25 10:48:22;;;;;;;9.05;8.07;;;;;;;31.69;42.89;100835.72;10197712;28;20722;-70
2021/07/25 10:53:22;;;;;;;10.50;7.88;;;;;;;32.21;38.20;100837.75;10200766;28;20104;-70
2021/07/25 10:58:21;;;;;;;9.15;7.38;;;;;;;32.45;37.09;100835.13;10190094;28;20050;-71
2021/07/25 11:03:29;;;;;;;10.35;7.40;;;;;;;32.12;36.29;100834.06;10193204;28;20054;-70
2021/07/25 11:08:36;;;;;;;9.85;8.02;;;;;;;32.68;39.04;100824.53;10200309;28;20407;-69
2021/07/25 11:13:39;;;;;;;9.35;7.70;;;;;;;33.14;38.28;100827.41;10181023;28;20054;-69
2021/07/25 11:18:40;;;;;;;9.30;7.57;;;;;;;32.91;35.12;100823.94;10183037;28;20134;-69
2021/07/25 11:23:38;;;;;;;10.30;7.32;;;;;;;32.69;36.96;100826.09;10188621;28;20089;-70
2021/07/25 11:28:43;;;;;;;11.15;7.35;;;;;;;32.87;37.92;100814.78;10196938;28;20047;-70
2021/07/25 11:33:45;;;;;;;9.57;7.53;;;;;;;32.75;35.64;100821.41;10195643;28;20133;-70
2021/07/25 11:38:47;;;;;;;9.63;7.60;;;;;;;32.87;33.79;100820.47;10193842;28;20488;-68
2021/07/25 11:44:05;;;;;;;9.32;7.97;;;;;;;32.39;37.89;100831.34;10194583;28;20711;-69
2021/07/25 11:49:16;;;;;;;8.73;6.60;;;;;;;32.14;38.02;100831.56;10190462;28;20467;-69
2021/07/25 11:54:18;;;;;;;8.17;6.53;;;;;;;31.82;37.65;100830.78;10191195;28;20373;-70
2021/07/25 11:59:14;;;;;;;8.05;6.85;;;;;;;30.91;40.84;100811.88;10195342;28;20480;-71
2021/07/25 12:04:33;;;;;;;11.00;6.88;;;;;;;30.58;37.38;100823.44;10199909;28;20077;-70
2021/07/25 12:09:31;;;;;;;9.82;7.10;;;;;;;30.78;36.16;100826.78;10194348;28;20068;-69
2021/07/25 12:14:29;;;;;;;9.45;7.10;;;;;;;30.38;38.14;100821.69;10193726;28;20050;-71
2021/07/25 12:19:26;;;;;;;9.43;6.05;;;;;;;30.13;38.97;100818.84;10198176;28;20042;-70
2021/07/25 12:24:28;;;;;;;9.45;6.47;;;;;;;30.06;37.73;100822.69;10191287;28;20054;-70
2021/07/25 12:29:45;;;;;;;8.50;6.45;;;;;;;29.94;37.00;100824.25;10193587;28;20839;-71
2021/07/25 12:34:41;;;;;;;8.57;6.75;;;;;;;29.37;38.88;100823.09;10189000;28;20130;-69
2021/07/25 12:39:37;;;;;;;10.57;6.75;;;;;;;28.86;39.36;100809.53;10192219;28;20065;-70
2021/07/25 12:44:34;;;;;;;9.68;7.00;;;;;;;28.47;40.04;100813.34;10188349;28;20416;-70
2021/07/25 12:49:30;;;;;;;9.65;6.75;;;;;;;28.27;41.09;100811.41;10223667;28;20081;-71
2021/07/25 12:54:27;;;;;;;8.90;6.80;;;;;;;28.37;40.68;100809.56;10211750;28;20042;-71
2021/07/25 12:59:23;;;;;;;8.88;6.47;;;;;;;28.42;41.75;100822.28;10213187;28;20643;-70
2021/07/25 13:04:24;;;;;;;10.18;6.20;;;;;;;28.58;39.44;100813.88;10201978;28;20508;-71
2021/07/25 13:09:21;;;;;;;10.82;6.55;;;;;;;28.74;40.32;100811.06;10213416;28;20451;-71
2021/07/25 13:14:30;;;;;;;9.18;6.03;;;;;;;28.52;40.42;100821.25;10201883;28;20092;-71
2021/07/25 13:19:27;;;;;;;7.45;5.95;;;;;;;28.30;42.79;100816.13;10189800;28;20410;-70
2021/07/25 13:24:23;;;;;;;7.85;5.80;;;;;;;28.26;43.34;100814.63;10214843;28;20049;-71
2021/07/25 13:29:20;;;;;;;8.55;5.80;;;;;;;28.14;42.86;100807.69;10193688;28;20073;-72
2021/07/25 13:34:16;;;;;;;9.48;6.25;;;;;;;28.35;42.36;100811.22;10194975;28;20088;-71
2021/07/25 13:39:13;;;;;;;8.27;6.28;;;;;;;28.37;42.67;100815.19;10207873;28;20053;-72
2021/07/25 13:44:10;;;;;;;11.43;6.50;;;;;;;28.42;40.50;100813.88;10191980;28;20085;-72
2021/07/25 13:49:11;;;;;;;7.43;5.55;;;;;;;28.55;39.62;100820.41;10183549;28;20069;-70
2021/07/25 13:54:09;;;;;;;9.73;6.18;;;;;;;28.52;39.21;100818.44;10179284;28;20115;-72
2021/07/25 13:59:06;;;;;;;8.68;6.03;;;;;;;28.47;40.96;100805.72;10201954;28;20045;-72
2021/07/25 14:04:03;;;;;;;7.85;5.88;;;;;;;28.71;41.20;100795.06;10195001;28;20107;-72
2021/07/25 14:08:59;;;;;;;8.82;6.07;;;;;;;29.03;39.12;100804.66;10194555;28;20164;-71
2021/07/25 14:13:55;;;;;;;8.05;5.60;;;;;;;29.10;39.01;100804.53;10184970;28;20061;-68
2021/07/25 14:18:52;;;;;;;8.02;5.40;;;;;;;29.18;40.48;100798.69;10172815;28;20038;-71
2021/07/25 14:23:49;;;;;;;8.05;6.35;;;;;;;28.90;38.78;100799.00;10177488;28;20061;-67
2021/07/25 14:28:46;;;;;;;9.10;6.03;;;;;;;28.62;38.90;100792.09;10173440;28;21048;-73
2021/07/25 14:33:42;;;;;;;8.93;6.40;;;;;;;28.56;39.96;100771.34;10172315;28;20117;-72
2021/07/25 14:38:43;;;;;;;8.27;6.70;;;;;;;28.40;39.84;100774.13;10171042;28;20046;-73
2021/07/25 14:43:40;;;;;;;7.22;5.70;;;;;;;28.31;40.24;100775.56;10187676;28;20076;-72
2021/07/25 14:48:38;;;;;;;8.80;6.28;;;;;;;28.12;40.20;100790.47;10191753;28;20492;-73
2021/07/25 14:53:34;;;;;;;8.20;6.13;;;;;;;27.99;40.09;100779.13;10197630;28;20045;-71
2021/07/25 14:58:31;;;;;;;8.23;5.95;;;;;;;28.20;39.78;100772.22;10208633;28;20042;-73
2021/07/25 15:03:28;;;;;;;10.32;5.85;;;;;;;28.39;38.28;100772.56;10204140;28;20046;-72
2021/07/25 15:08:24;;;;;;;8.68;5.63;;;;;;;28.20;38.56;100775.03;10211468;28;20078;-71
2021/07/25 15:13:21;;;;;;;8.77;6.30;;;;;;;27.99;38.62;100772.69;10205250;28;20096;-71
2021/07/25 15:18:21;;;;;;;7.90;6.22;;;;;;;27.84;39.77;100761.81;10196786;28;20081;-72
2021/07/25 15:23:18;;;;;;;9.40;7.03;;;;;;;27.65;40.04;100771.03;10203090;28;20048;-72
2021/07/25 15:28:14;;;;;;;7.45;6.00;;;;;;;27.54;40.78;100776.09;10201871;28;20046;-71
2021/07/25 15:33:11;;;;;;;8.68;6.13;;;;;;;27.38;40.27;100786.03;10196734;28;20037;-71
2021/07/25 15:38:07;;;;;;;9.27;5.85;;;;;;;27.47;40.34;100777.81;10184162;28;20034;-70
2021/07/25 15:43:04;;;;;;;9.75;6.47;;;;;;;27.87;40.41;100772.19;10202110;28;20496;-71
2021/07/25 15:48:00;;;;;;;9.68;6.43;;;;;;;27.73;41.83;100772.44;10213105;28;20072;-71
2021/07/25 15:52:59;;;;;;;9.07;7.18;;;;;;;27.53;42.12;100774.53;10185836;28;20062;-71
2021/07/25 15:57:55;;;;;;;10.00;6.22;;;;;;;27.98;42.21;100765.50;10197887;28;20038;-70
2021/07/25 16:02:52;;;;;;;8.52;7.03;;;;;;;28.25;42.46;100768.88;10202534;28;20795;-71
2021/07/25 16:07:48;;;;;;;12.70;7.20;;;;;;;28.35;41.69;100769.06;10198864;28;20136;-67
2021/07/25 16:12:45;;;;;;;9.35;6.72;;;;;;;28.27;43.13;100772.03;10208537;28;20474;-69
2021/07/25 16:17:44;;;;;;;9.02;7.43;;;;;;;28.00;43.70;100785.53;10192174;28;20132;-70
2021/07/25 16:22:40;;;;;;;9.07;7.78;;;;;;;27.99;44.41;100783.94;10195607;28;20046;-71
2021/07/25 16:27:37;;;;;;;7.32;5.53;;;;;;;28.36;44.46;100773.44;10202568;28;20042;-71
2021/07/25 16:32:38;;;;;;;8.05;6.38;;;;;;;28.84;42.89;100775.44;10214327;28;20073;-70
2021/07/25 16:37:34;;;;;;;8.90;6.65;;;;;;;29.86;40.77;100774.97;10206149;28;20065;-71
2021/07/25 16:42:31;;;;;;;7.32;5.32;;;;;;;29.62;40.27;100771.66;10208953;28;20069;-70
2021/07/25 16:47:32;;;;;;;10.45;5.55;;;;;;;28.86;41.50;100775.00;10200080;28;20103;-71
2021/07/25 16:52:29;;;;;;;7.15;5.35;;;;;;;28.54;43.08;100771.78;10213170;28;20046;-70
2021/07/25 16:57:25;;;;;;;7.68;5.93;;;;;;;28.22;43.27;100781.00;10207162;28;20045;-71
2021/07/25 17:02:22;;;;;;;9.88;6.72;;;;;;;27.98;44.81;100788.00;10203098;28;20057;-71
2021/07/25 17:07:18;;;;;;;11.73;6.45;;;;;;;27.71;46.11;100791.78;10197584;28;20050;-69
2021/07/25 17:12:16;;;;;;;11.45;7.22;;;;;;;27.80;47.13;100783.53;10197319;28;20081;-70
2021/07/25 17:17:12;;;;;;;11.07;7.70;;;;;;;27.76;46.89;100790.44;10193206;28;20049;-70
2021/07/25 17:22:09;;;;;;;10.63;6.20;;;;;;;27.57;48.87;100780.84;10197452;28;20496;-71
2021/07/25 17:27:06;;;;;;;10.30;7.97;;;;;;;27.37;49.28;100800.50;10189024;28;20061;-68
2021/07/25 17:32:03;;;;;;;8.40;6.60;;;;;;;27.04;49.15;100786.28;10187381;28;20418;-71
2021/07/25 17:37:00;;;;;;;8.75;6.63;;;;;;;27.02;49.95;100785.94;10169846;28;20081;-68
2021/07/25 17:41:56;;;;;;;8.68;6.47;;;;;;;26.92;49.44;100787.72;10207747;28;20058;-67
2021/07/25 17:46:53;;;;;;;9.48;7.35;;;;;;;26.93;50.02;100803.31;10172691;28;20042;-71
2021/07/25 17:51:50;;;;;;;8.65;7.13;;;;;;;26.86;49.80;100806.25;10189238;28;20053;-68
2021/07/25 17:56:47;;;;;;;9.75;6.60;;;;;;;26.71;51.46;100799.28;10187962;28;20042;-71
2021/07/25 18:01:44;;;;;;;8.30;5.97;;;;;;;26.59;53.05;100797.91;10194662;28;20562;-68
2021/07/25 18:06:42;;;;;;;10.27;6.90;;;;;;;26.56;51.84;100793.94;10184897;28;20056;-70
2021/07/25 18:11:39;;;;;;;8.63;5.80;;;;;;;26.44;52.53;100797.31;10204383;28;20042;-71
2021/07/25 18:16:35;;;;;;;8.63;6.28;;;;;;;26.34;51.07;100801.88;10183731;28;20046;-69
2021/07/25 18:21:32;;;;;;;7.95;5.53;;;;;;;26.28;50.50;100808.41;10195944;28;20053;-71
2021/07/25 18:26:29;;;;;;;11.35;6.18;;;;;;;26.18;52.12;100802.53;10185213;28;20042;-71
2021/07/25 18:31:26;;;;;;;7.50;5.47;;;;;;;26.13;52.70;100805.00;10174808;28;20129;-71
2021/07/25 18:36:22;;;;;;;8.45;6.40;;;;;;;26.05;51.92;100809.91;10185366;28;20096;-71
2021/07/25 18:41:19;;;;;;;7.53;5.55;;;;;;;25.95;54.03;100811.66;10182871;28;20077;-71
2021/07/25 18:46:26;;;;;;;8.23;5.63;;;;;;;25.85;50.81;100814.56;10189601;28;20481;-71
2021/07/25 18:51:22;;;;;;;8.07;5.88;;;;;;;25.64;51.41;100819.25;10193489;28;20141;-69
2021/07/25 18:56:19;;;;;;;8.07;5.65;;;;;;;25.50;52.84;100819.41;10187027;28;20558;-69
2021/07/25 19:01:17;;;;;;;6.35;4.68;;;;;;;25.36;53.48;100815.56;10190907;28;20080;-70
2021/07/25 19:06:19;;;;;;;6.88;4.80;;;;;;;25.19;51.33;100817.34;10188782;28;20057;-69
2021/07/25 19:11:18;;;;;;;6.20;4.77;;;;;;;25.04;51.38;100823.47;10198447;28;20048;-69
2021/07/25 19:16:16;;;;;;;7.30;4.68;;;;;;;24.98;51.38;100829.53;10195794;28;20081;-69
2021/07/25 19:21:15;;;;;;;8.05;5.68;;;;;;;24.91;51.51;100821.22;10190129;28;20046;-69
2021/07/25 19:26:16;;;;;;;8.13;5.28;;;;;;;24.82;52.22;100837.69;10186754;28;20050;-70
2021/07/25 19:31:24;;;;;;;7.32;5.35;;;;;;;24.73;52.64;100845.75;10174241;28;20065;-69
2021/07/25 19:36:21;;;;;;;8.13;5.95;;;;;;;24.66;53.05;100834.63;10185215;28;20046;-72
2021/07/25 19:41:39;;;;;;;8.38;5.50;;;;;;;24.60;53.27;100839.06;10185407;28;20049;-68
2021/07/25 19:46:56;;;;;;;8.43;6.47;;;;;;;24.50;53.30;100860.28;10197050;28;20132;-70
2021/07/25 19:51:54;;;;;;;8.27;5.65;;;;;;;24.38;54.39;100850.38;10199295;28;20400;-68
2021/07/25 19:56:51;;;;;;;8.10;5.82;;;;;;;24.30;54.34;100854.44;10196711;28;20083;-70
2021/07/25 20:02:08;;;;;;;9.45;6.35;;;;;;;24.15;54.04;100856.50;10201485;28;20060;-72
2021/07/25 20:07:06;;;;;;;8.77;5.93;;;;;;;24.08;55.11;100854.53;10204454;28;20471;-72
2021/07/25 20:12:05;;;;;;;7.75;5.60;;;;;;;24.00;55.37;100858.59;10200332;28;20049;-73
2021/07/25 20:17:02;;;;;;;8.48;5.65;;;;;;;23.91;55.24;100859.00;10189488;28;20060;-72
2021/07/25 20:22:02;;;;;;;8.95;7.05;;;;;;;23.79;55.74;100858.66;10194715;28;20104;-70
2021/07/25 20:27:00;;;;;;;8.25;6.00;;;;;;;23.72;57.36;100863.06;10197498;28;20054;-71
2021/07/25 20:32:11;;;;;;;13.35;7.40;;;;;;;23.64;57.58;100861.47;10205507;28;20052;-70
2021/07/25 20:37:08;;;;;;;12.30;7.38;;;;;;;23.57;58.60;100866.28;10207953;28;20558;-70
2021/07/25 20:42:05;;;;;;;10.98;7.28;;;;;;;23.49;59.76;100887.84;10200735;28;20057;-69
2021/07/25 20:47:02;;;;;;;10.02;6.70;;;;;;;23.41;58.58;100880.69;10206918;28;20557;-68
2021/07/25 20:52:00;;;;;;;10.13;7.38;;;;;;;23.31;59.36;100876.72;10193587;28;20400;-69
2021/07/25 20:56:57;;;;;;;12.40;8.00;;;;;;;23.27;58.57;100873.94;10203875;28;20076;-69
2021/07/25 21:01:53;;;;;;;9.63;7.20;;;;;;;23.18;58.91;100873.53;10188731;28;20074;-68
2021/07/25 21:06:50;;;;;;;11.55;7.68;;;;;;;23.12;59.03;100868.81;10210692;28;20129;-69
2021/07/25 21:11:46;;;;;;;10.52;7.43;;;;;;;23.06;59.61;100860.81;10215016;28;20401;-71
2021/07/25 21:16:43;;;;;;;14.40;8.68;;;;;;;22.98;59.79;100852.84;10213819;28;20073;-71
2021/07/25 21:21:39;;;;;;;11.38;7.82;;;;;;;22.90;60.01;100857.63;10196009;28;20074;-71
2021/07/25 21:26:37;;;;;;;10.52;7.95;;;;;;;22.87;60.36;100850.06;10196669;28;20107;-71
2021/07/25 21:31:33;;;;;;;12.10;8.13;;;;;;;22.79;60.58;100852.06;10208040;28;20050;-70
2021/07/25 21:36:30;;;;;;;9.82;7.85;;;;;;;22.73;60.91;100848.06;10181720;28;20120;-71
2021/07/25 21:41:27;;;;;;;12.57;8.05;;;;;;;22.66;61.06;100864.78;10205156;28;20104;-70
2021/07/25 21:46:23;;;;;;;13.23;8.50;;;;;;;22.58;61.53;100858.41;10194563;28;20042;-68
2021/07/25 21:51:20;;;;;;;10.02;8.13;;;;;;;22.50;61.41;100867.16;10217243;28;20559;-69
2021/07/25 21:56:17;;;;;;;9.27;8.07;;;;;;;22.41;61.30;100865.53;10197852;28;20043;-71
2021/07/25 22:06:24;;;;;;;12.10;9.05;;;;;;;22.27;62.68;100871.09;10195351;28;20129;-69
2021/07/25 22:11:20;;;;;;;13.93;8.57;;;;;;;22.19;62.76;100869.47;10196747;28;20445;-74
2021/07/25 22:16:17;;;;;;;11.75;9.27;;;;;;;22.11;62.91;100873.41;10197660;28;20557;-70
2021/07/25 22:21:14;;;;;;;13.20;9.88;;;;;;;22.01;63.46;100863.84;10180844;28;20399;-70
2021/07/25 22:26:17;;;;;;;13.23;9.32;;;;;;;21.94;63.68;100849.91;10187949;28;20606;-71
2021/07/25 22:31:13;;;;;;;11.98;9.43;;;;;;;21.89;64.39;100856.63;10186118;28;20124;-72
2021/07/25 22:36:10;;;;;;;14.13;9.25;;;;;;;21.81;64.42;100855.00;10194779;28;20423;-72
2021/07/25 22:41:07;;;;;;;13.50;11.02;;;;;;;21.76;64.92;100847.03;10202558;28;20096;-70